sensor_id;sensor_type;location;lat;lon;timestamp;pressure;altitude;pressure_sealevel;temperature;humidity
56582;BME280;42463;52.214;21.238;2022-11-11T00:01:34;101553.63;;;8.99;71.25
56582;BME280;42463;52.214;21.238;2022-11-11T00:04:18;101558.98;;;9.00;71.30
56582;BME280;42463;52.214;21.238;2022-11-11T00:07:01;101554.09;;;8.97;71.26
56582;BME280;42463;52.214;21.238;2022-11-11T00:09:45;101555.56;;;8.97;71.34
56582;BME280;42463;52.214;21.238;2022-11-11T00:12:28;101556.59;;;8.97;71.49
56582;BME280;42463;52.214;21.238;2022-11-11T00:15:13;101559.35;;;8.97;71.16
56582;BME280;42463;52.214;21.238;2022-11-11T00:17:59;101563.88;;;8.98;71.23
56582;BME280;42463;52.214;21.238;2022-11-11T00:21:01;101561.02;;;8.96;71.33
56582;BME280;42463;52.214;21.238;2022-11-11T00:24:03;101568.79;;;8.99;71.36
56582;BME280;42463;52.214;21.238;2022-11-11T00:27:16;101573.83;;;8.98;71.13
56582;BME280;42463;52.214;21.238;2022-11-11T00:30:00;101574.76;;;8.95;71.46
56582;BME280;42463;52.214;21.238;2022-11-11T00:32:44;101572.43;;;8.94;71.58
56582;BME280;42463;52.214;21.238;2022-11-11T00:35:27;101573.27;;;8.93;71.97
56582;BME280;42463;52.214;21.238;2022-11-11T00:38:29;101577.52;;;8.92;71.81
56582;BME280;42463;52.214;21.238;2022-11-11T00:41:28;101576.15;;;8.92;72.15
56582;BME280;42463;52.214;21.238;2022-11-11T00:44:12;101575.73;;;8.92;72.43
56582;BME280;42463;52.214;21.238;2022-11-11T00:46:55;101573.31;;;8.93;72.40
56582;BME280;42463;52.214;21.238;2022-11-11T00:50:13;101574.75;;;8.96;72.42
56582;BME280;42463;52.214;21.238;2022-11-11T00:53:17;101569.00;;;8.99;72.60
56582;BME280;42463;52.214;21.238;2022-11-11T00:56:00;101571.52;;;9.02;72.33
56582;BME280;42463;52.214;21.238;2022-11-11T00:58:44;101573.73;;;9.04;72.53
56582;BME280;42463;52.214;21.238;2022-11-11T01:01:28;101576.63;;;9.05;72.29
56582;BME280;42463;52.214;21.238;2022-11-11T01:04:12;101574.96;;;9.04;72.00
56582;BME280;42463;52.214;21.238;2022-11-11T01:06:55;101573.30;;;9.04;72.25
56582;BME280;42463;52.214;21.238;2022-11-11T01:09:39;101570.73;;;9.03;72.08
56582;BME280;42463;52.214;21.238;2022-11-11T01:12:23;101572.10;;;9.03;71.94
56582;BME280;42463;52.214;21.238;2022-11-11T01:15:08;101567.95;;;9.00;71.86
56582;BME280;42463;52.214;21.238;2022-11-11T01:17:52;101569.49;;;8.99;71.93
56582;BME280;42463;52.214;21.238;2022-11-11T01:20:36;101571.83;;;9.01;72.14
56582;BME280;42463;52.214;21.238;2022-11-11T01:23:20;101569.36;;;9.03;71.90
56582;BME280;42463;52.214;21.238;2022-11-11T01:26:04;101569.32;;;9.02;71.65
56582;BME280;42463;52.214;21.238;2022-11-11T01:28:51;101571.86;;;9.01;71.79
56582;BME280;42463;52.214;21.238;2022-11-11T01:31:35;101570.66;;;9.00;72.01
56582;BME280;42463;52.214;21.238;2022-11-11T01:34:18;101564.31;;;9.03;72.37
56582;BME280;42463;52.214;21.238;2022-11-11T01:37:02;101563.30;;;9.05;72.19
56582;BME280;42463;52.214;21.238;2022-11-11T01:39:45;101566.38;;;9.05;72.01
56582;BME280;42463;52.214;21.238;2022-11-11T01:42:29;101563.52;;;9.05;72.38
56582;BME280;42463;52.214;21.238;2022-11-11T01:45:46;101563.13;;;9.06;72.54
56582;BME280;42463;52.214;21.238;2022-11-11T01:48:34;101563.79;;;9.08;72.37
56582;BME280;42463;52.214;21.238;2022-11-11T01:51:39;101560.02;;;9.11;72.82
56582;BME280;42463;52.214;21.238;2022-11-11T01:54:28;101564.95;;;9.15;72.65
56582;BME280;42463;52.214;21.238;2022-11-11T01:57:18;101561.16;;;9.16;72.81
56582;BME280;42463;52.214;21.238;2022-11-11T02:03:56;101550.85;;;9.26;73.24
56582;BME280;42463;52.214;21.238;2022-11-11T02:07:02;101548.87;;;9.30;73.04
56582;BME280;42463;52.214;21.238;2022-11-11T02:09:47;101538.52;;;9.34;73.05
56582;BME280;42463;52.214;21.238;2022-11-11T02:12:33;101540.76;;;9.39;73.06
56582;BME280;42463;52.214;21.238;2022-11-11T02:15:36;101537.91;;;9.40;72.94
56582;BME280;42463;52.214;21.238;2022-11-11T02:18:20;101533.73;;;9.41;72.91
56582;BME280;42463;52.214;21.238;2022-11-11T02:21:04;101538.56;;;9.43;72.77
56582;BME280;42463;52.214;21.238;2022-11-11T02:23:51;101538.38;;;9.45;72.79
56582;BME280;42463;52.214;21.238;2022-11-11T02:26:36;101537.84;;;9.50;72.80
56582;BME280;42463;52.214;21.238;2022-11-11T02:29:22;101538.08;;;9.52;72.55
56582;BME280;42463;52.214;21.238;2022-11-11T02:32:07;101543.27;;;9.54;72.34
56582;BME280;42463;52.214;21.238;2022-11-11T02:34:53;101541.89;;;9.55;72.08
56582;BME280;42463;52.214;21.238;2022-11-11T02:37:36;101540.85;;;9.59;72.21
56582;BME280;42463;52.214;21.238;2022-11-11T02:40:22;101543.42;;;9.62;71.88
56582;BME280;42463;52.214;21.238;2022-11-11T02:43:09;101548.94;;;9.60;71.52
56582;BME280;42463;52.214;21.238;2022-11-11T02:45:52;101550.30;;;9.62;71.76
56582;BME280;42463;52.214;21.238;2022-11-11T02:48:36;101550.21;;;9.63;71.64
56582;BME280;42463;52.214;21.238;2022-11-11T02:51:19;101555.27;;;9.61;71.48
56582;BME280;42463;52.214;21.238;2022-11-11T02:54:03;101566.05;;;9.56;71.01
56582;BME280;42463;52.214;21.238;2022-11-11T02:56:46;101571.84;;;9.51;71.02
56582;BME280;42463;52.214;21.238;2022-11-11T02:59:48;101573.30;;;9.45;70.90
56582;BME280;42463;52.214;21.238;2022-11-11T03:02:31;101571.14;;;9.39;70.81
56582;BME280;42463;52.214;21.238;2022-11-11T03:05:15;101568.89;;;9.33;70.67
56582;BME280;42463;52.214;21.238;2022-11-11T03:07:59;101571.02;;;9.31;70.87
56582;BME280;42463;52.214;21.238;2022-11-11T03:10:43;101575.63;;;9.30;70.96
56582;BME280;42463;52.214;21.238;2022-11-11T03:13:27;101579.42;;;9.27;70.90
56582;BME280;42463;52.214;21.238;2022-11-11T03:16:10;101584.80;;;9.26;70.68
56582;BME280;42463;52.214;21.238;2022-11-11T03:19:14;101586.77;;;9.16;70.54
56582;BME280;42463;52.214;21.238;2022-11-11T03:21:58;101586.94;;;9.09;70.36
56582;BME280;42463;52.214;21.238;2022-11-11T03:24:42;101586.84;;;9.03;70.61
56582;BME280;42463;52.214;21.238;2022-11-11T03:27:43;101586.65;;;8.99;70.61
56582;BME280;42463;52.214;21.238;2022-11-11T03:30:29;101576.27;;;8.92;70.92
56582;BME280;42463;52.214;21.238;2022-11-11T03:33:13;101577.23;;;8.94;71.04
56582;BME280;42463;52.214;21.238;2022-11-11T03:35:57;101576.76;;;8.95;71.16
56582;BME280;42463;52.214;21.238;2022-11-11T03:38:41;101577.68;;;8.93;71.29
56582;BME280;42463;52.214;21.238;2022-11-11T03:41:24;101583.36;;;8.90;71.41
56582;BME280;42463;52.214;21.238;2022-11-11T03:44:08;101584.03;;;8.88;71.33
56582;BME280;42463;52.214;21.238;2022-11-11T03:46:54;101578.21;;;8.87;71.70
56582;BME280;42463;52.214;21.238;2022-11-11T03:49:38;101577.06;;;8.90;71.69
56582;BME280;42463;52.214;21.238;2022-11-11T03:52:22;101580.98;;;8.92;71.83
56582;BME280;42463;52.214;21.238;2022-11-11T03:55:06;101585.69;;;8.90;71.88
56582;BME280;42463;52.214;21.238;2022-11-11T03:57:50;101587.90;;;8.90;71.81
56582;BME280;42463;52.214;21.238;2022-11-11T04:00:35;101588.44;;;8.88;72.17
56582;BME280;42463;52.214;21.238;2022-11-11T04:03:18;101592.79;;;8.85;72.16
56582;BME280;42463;52.214;21.238;2022-11-11T04:06:20;101598.34;;;8.82;71.92
56582;BME280;42463;52.214;21.238;2022-11-11T04:09:21;101597.13;;;8.81;72.32
56582;BME280;42463;52.214;21.238;2022-11-11T04:12:23;101604.29;;;8.84;72.57
56582;BME280;42463;52.214;21.238;2022-11-11T04:15:09;101604.98;;;8.87;72.76
56582;BME280;42463;52.214;21.238;2022-11-11T04:18:10;101606.05;;;8.89;72.57
56582;BME280;42463;52.214;21.238;2022-11-11T04:20:54;101610.45;;;8.94;73.04
56582;BME280;42463;52.214;21.238;2022-11-11T04:23:56;101610.36;;;8.94;72.40
56582;BME280;42463;52.214;21.238;2022-11-11T04:26:40;101615.94;;;8.95;72.51
56582;BME280;42463;52.214;21.238;2022-11-11T04:29:24;101623.45;;;8.93;72.46
56582;BME280;42463;52.214;21.238;2022-11-11T04:32:12;101628.66;;;8.90;72.45
56582;BME280;42463;52.214;21.238;2022-11-11T04:35:14;101634.48;;;8.90;72.63
56582;BME280;42463;52.214;21.238;2022-11-11T04:38:01;101634.61;;;8.89;72.36
56582;BME280;42463;52.214;21.238;2022-11-11T04:40:58;101625.38;;;8.88;72.44
56582;BME280;42463;52.214;21.238;2022-11-11T04:43:50;101624.73;;;8.91;72.94
56582;BME280;42463;52.214;21.238;2022-11-11T04:46:51;101625.05;;;8.95;73.06
56582;BME280;42463;52.214;21.238;2022-11-11T04:49:35;101618.41;;;9.02;73.46
56582;BME280;42463;52.214;21.238;2022-11-11T04:52:19;101614.73;;;9.06;73.29
56582;BME280;42463;52.214;21.238;2022-11-11T04:55:09;101617.92;;;9.09;73.31
56582;BME280;42463;52.214;21.238;2022-11-11T04:58:10;101621.23;;;9.11;73.10
56582;BME280;42463;52.214;21.238;2022-11-11T05:00:54;101617.43;;;9.15;73.50
56582;BME280;42463;52.214;21.238;2022-11-11T05:03:37;101615.43;;;9.16;73.05
56582;BME280;42463;52.214;21.238;2022-11-11T05:06:24;101622.59;;;9.17;73.06
56582;BME280;42463;52.214;21.238;2022-11-11T05:09:24;101631.89;;;9.15;72.63
56582;BME280;42463;52.214;21.238;2022-11-11T05:12:08;101631.05;;;9.16;72.86
56582;BME280;42463;52.214;21.238;2022-11-11T05:14:52;101627.50;;;9.18;72.65
56582;BME280;42463;52.214;21.238;2022-11-11T05:17:53;101628.66;;;9.20;73.00
56582;BME280;42463;52.214;21.238;2022-11-11T05:20:51;101630.48;;;9.21;72.79
56582;BME280;42463;52.214;21.238;2022-11-11T05:23:53;101628.40;;;9.20;72.88
56582;BME280;42463;52.214;21.238;2022-11-11T05:26:54;101620.39;;;9.23;73.07
56582;BME280;42463;52.214;21.238;2022-11-11T05:29:38;101615.63;;;9.26;73.16
56582;BME280;42463;52.214;21.238;2022-11-11T05:32:23;101615.36;;;9.29;73.00
56582;BME280;42463;52.214;21.238;2022-11-11T05:35:09;101615.04;;;9.28;72.78
56582;BME280;42463;52.214;21.238;2022-11-11T05:37:53;101608.95;;;9.28;73.07
56582;BME280;42463;52.214;21.238;2022-11-11T05:40:50;101602.40;;;9.31;72.97
56582;BME280;42463;52.214;21.238;2022-11-11T05:43:34;101602.86;;;9.31;73.09
56582;BME280;42463;52.214;21.238;2022-11-11T05:46:21;101605.05;;;9.32;73.05
56582;BME280;42463;52.214;21.238;2022-11-11T05:49:04;101609.61;;;9.31;73.04
56582;BME280;42463;52.214;21.238;2022-11-11T05:51:57;101609.23;;;9.31;73.00
56582;BME280;42463;52.214;21.238;2022-11-11T05:54:41;101615.75;;;9.27;72.89
56582;BME280;42463;52.214;21.238;2022-11-11T05:57:26;101622.59;;;9.24;72.93
56582;BME280;42463;52.214;21.238;2022-11-11T06:00:11;101623.52;;;9.23;73.21
56582;BME280;42463;52.214;21.238;2022-11-11T06:02:55;101626.18;;;9.23;73.25
56582;BME280;42463;52.214;21.238;2022-11-11T06:05:44;101624.13;;;9.27;73.66
56582;BME280;42463;52.214;21.238;2022-11-11T06:08:27;101622.33;;;9.29;73.61
56582;BME280;42463;52.214;21.238;2022-11-11T06:11:11;101621.30;;;9.31;73.75
56582;BME280;42463;52.214;21.238;2022-11-11T06:13:55;101623.51;;;9.34;73.49
56582;BME280;42463;52.214;21.238;2022-11-11T06:16:38;101619.30;;;9.37;73.80
56582;BME280;42463;52.214;21.238;2022-11-11T06:19:22;101617.21;;;9.38;73.74
56582;BME280;42463;52.214;21.238;2022-11-11T06:22:05;101619.55;;;9.40;73.85
56582;BME280;42463;52.214;21.238;2022-11-11T06:24:49;101614.31;;;9.43;73.91
56582;BME280;42463;52.214;21.238;2022-11-11T06:27:52;101612.83;;;9.48;73.85
56582;BME280;42463;52.214;21.238;2022-11-11T06:30:36;101626.36;;;9.49;73.63
56582;BME280;42463;52.214;21.238;2022-11-11T06:33:20;101626.14;;;9.52;74.17
56582;BME280;42463;52.214;21.238;2022-11-11T06:36:05;101627.98;;;9.58;73.97
56582;BME280;42463;52.214;21.238;2022-11-11T06:38:49;101623.34;;;9.58;73.78
56582;BME280;42463;52.214;21.238;2022-11-11T06:41:33;101629.88;;;9.61;73.88
56582;BME280;42463;52.214;21.238;2022-11-11T06:44:19;101628.98;;;9.63;73.75
56582;BME280;42463;52.214;21.238;2022-11-11T06:47:03;101628.31;;;9.64;73.55
56582;BME280;42463;52.214;21.238;2022-11-11T06:49:47;101623.52;;;9.65;73.91
56582;BME280;42463;52.214;21.238;2022-11-11T06:52:31;101620.33;;;9.67;74.27
56582;BME280;42463;52.214;21.238;2022-11-11T06:55:15;101622.52;;;9.71;74.09
56582;BME280;42463;52.214;21.238;2022-11-11T06:58:05;101630.11;;;9.74;74.08
56582;BME280;42463;52.214;21.238;2022-11-11T07:00:49;101627.48;;;9.76;73.98
56582;BME280;42463;52.214;21.238;2022-11-11T07:03:34;101630.18;;;9.76;73.88
56582;BME280;42463;52.214;21.238;2022-11-11T07:06:17;101634.02;;;9.78;74.18
56582;BME280;42463;52.214;21.238;2022-11-11T07:09:01;101635.91;;;9.81;74.34
56582;BME280;42463;52.214;21.238;2022-11-11T07:11:46;101634.30;;;9.84;74.15
56582;BME280;42463;52.214;21.238;2022-11-11T07:14:30;101632.36;;;9.86;74.21
56582;BME280;42463;52.214;21.238;2022-11-11T07:17:14;101624.65;;;9.86;74.00
56582;BME280;42463;52.214;21.238;2022-11-11T07:19:57;101622.61;;;9.85;74.08
56582;BME280;42463;52.214;21.238;2022-11-11T07:22:41;101622.23;;;9.86;74.19
56582;BME280;42463;52.214;21.238;2022-11-11T07:25:24;101618.42;;;9.89;74.17
56582;BME280;42463;52.214;21.238;2022-11-11T07:28:07;101612.73;;;9.91;74.26
56582;BME280;42463;52.214;21.238;2022-11-11T07:30:51;101617.30;;;9.91;74.13
56582;BME280;42463;52.214;21.238;2022-11-11T07:33:34;101615.66;;;9.89;74.16
56582;BME280;42463;52.214;21.238;2022-11-11T07:36:18;101608.23;;;9.89;74.42
56582;BME280;42463;52.214;21.238;2022-11-11T07:39:02;101605.37;;;9.93;74.41
56582;BME280;42463;52.214;21.238;2022-11-11T07:41:46;101598.84;;;9.96;74.37
56582;BME280;42463;52.214;21.238;2022-11-11T07:44:30;101591.48;;;9.99;74.49
56582;BME280;42463;52.214;21.238;2022-11-11T07:47:14;101590.63;;;10.01;74.57
56582;BME280;42463;52.214;21.238;2022-11-11T07:49:59;101593.67;;;10.05;74.54
56582;BME280;42463;52.214;21.238;2022-11-11T07:52:46;101590.52;;;10.08;74.52
56582;BME280;42463;52.214;21.238;2022-11-11T07:55:30;101588.27;;;10.09;74.29
56582;BME280;42463;52.214;21.238;2022-11-11T07:58:14;101589.44;;;10.12;74.39
56582;BME280;42463;52.214;21.238;2022-11-11T08:01:00;101593.73;;;10.12;74.47
56582;BME280;42463;52.214;21.238;2022-11-11T08:03:44;101595.96;;;10.14;74.60
56582;BME280;42463;52.214;21.238;2022-11-11T08:06:32;101600.31;;;10.19;74.62
56582;BME280;42463;52.214;21.238;2022-11-11T08:09:15;101609.20;;;10.21;74.43
56582;BME280;42463;52.214;21.238;2022-11-11T08:11:59;101617.11;;;10.23;74.31
56582;BME280;42463;52.214;21.238;2022-11-11T08:15:00;101613.74;;;10.27;74.80
56582;BME280;42463;52.214;21.238;2022-11-11T08:17:45;101623.70;;;10.29;74.45
56582;BME280;42463;52.214;21.238;2022-11-11T08:20:29;101638.08;;;10.31;74.58
56582;BME280;42463;52.214;21.238;2022-11-11T08:23:12;101648.62;;;10.32;74.59
56582;BME280;42463;52.214;21.238;2022-11-11T08:26:03;101639.73;;;10.35;74.62
56582;BME280;42463;52.214;21.238;2022-11-11T08:28:47;101636.76;;;10.38;74.69
56582;BME280;42463;52.214;21.238;2022-11-11T08:31:31;101634.69;;;10.43;74.41
56582;BME280;42463;52.214;21.238;2022-11-11T08:34:16;101641.10;;;10.48;74.47
56582;BME280;42463;52.214;21.238;2022-11-11T08:37:01;101641.65;;;10.52;74.60
56582;BME280;42463;52.214;21.238;2022-11-11T08:39:43;101646.88;;;10.56;74.32
56582;BME280;42463;52.214;21.238;2022-11-11T08:42:27;101653.30;;;10.60;74.46
56582;BME280;42463;52.214;21.238;2022-11-11T08:45:11;101643.45;;;10.61;74.53
56582;BME280;42463;52.214;21.238;2022-11-11T08:47:55;101647.64;;;10.70;74.59
56582;BME280;42463;52.214;21.238;2022-11-11T08:50:40;101644.78;;;10.76;74.62
56582;BME280;42463;52.214;21.238;2022-11-11T08:53:24;101642.27;;;10.80;74.36
56582;BME280;42463;52.214;21.238;2022-11-11T08:56:08;101637.27;;;10.84;74.53
56582;BME280;42463;52.214;21.238;2022-11-11T08:58:55;101645.85;;;10.93;74.87
56582;BME280;42463;52.214;21.238;2022-11-11T09:01:38;101646.09;;;11.00;74.54
56582;BME280;42463;52.214;21.238;2022-11-11T09:04:23;101641.64;;;11.06;74.39
56582;BME280;42463;52.214;21.238;2022-11-11T09:07:06;101641.43;;;11.12;74.15
56582;BME280;42463;52.214;21.238;2022-11-11T09:09:52;101640.59;;;11.16;74.10
56582;BME280;42463;52.214;21.238;2022-11-11T09:12:37;101644.64;;;11.24;74.11
56582;BME280;42463;52.214;21.238;2022-11-11T09:15:21;101638.11;;;11.27;73.60
56582;BME280;42463;52.214;21.238;2022-11-11T09:18:05;101640.55;;;11.29;73.70
56582;BME280;42463;52.214;21.238;2022-11-11T09:20:50;101642.27;;;11.32;73.95
56582;BME280;42463;52.214;21.238;2022-11-11T09:23:33;101644.62;;;11.34;73.91
56582;BME280;42463;52.214;21.238;2022-11-11T09:26:20;101639.39;;;11.38;73.88
56582;BME280;42463;52.214;21.238;2022-11-11T09:29:04;101640.75;;;11.43;73.97
56582;BME280;42463;52.214;21.238;2022-11-11T09:31:47;101635.69;;;11.48;73.51
56582;BME280;42463;52.214;21.238;2022-11-11T09:34:31;101639.05;;;11.50;73.40
56582;BME280;42463;52.214;21.238;2022-11-11T09:37:15;101637.09;;;11.52;73.75
56582;BME280;42463;52.214;21.238;2022-11-11T09:39:59;101637.42;;;11.52;73.52
56582;BME280;42463;52.214;21.238;2022-11-11T09:42:47;101636.27;;;11.56;73.44
56582;BME280;42463;52.214;21.238;2022-11-11T09:45:42;101645.21;;;11.63;73.56
56582;BME280;42463;52.214;21.238;2022-11-11T09:48:49;101642.88;;;11.65;73.20
56582;BME280;42463;52.214;21.238;2022-11-11T09:51:42;101643.38;;;11.68;72.97
56582;BME280;42463;52.214;21.238;2022-11-11T09:54:37;101637.63;;;11.72;72.83
56582;BME280;42463;52.214;21.238;2022-11-11T09:57:31;101631.67;;;11.77;72.70
56582;BME280;42463;52.214;21.238;2022-11-11T10:00:21;101621.94;;;11.80;72.67
56582;BME280;42463;52.214;21.238;2022-11-11T10:03:14;101620.80;;;11.83;72.54
56582;BME280;42463;52.214;21.238;2022-11-11T10:06:02;101620.46;;;11.87;72.41
56582;BME280;42463;52.214;21.238;2022-11-11T10:08:55;101620.15;;;11.90;72.46
56582;BME280;42463;52.214;21.238;2022-11-11T10:11:50;101616.85;;;11.90;72.27
56582;BME280;42463;52.214;21.238;2022-11-11T10:14:52;101603.27;;;11.93;72.24
56582;BME280;42463;52.214;21.238;2022-11-11T10:17:41;101593.42;;;11.95;72.22
56582;BME280;42463;52.214;21.238;2022-11-11T10:20:32;101592.22;;;11.97;72.21
56582;BME280;42463;52.214;21.238;2022-11-11T10:23:23;101595.04;;;11.96;72.09
56582;BME280;42463;52.214;21.238;2022-11-11T10:26:16;101596.29;;;11.97;72.29
56582;BME280;42463;52.214;21.238;2022-11-11T10:29:19;101603.03;;;11.99;72.47
56582;BME280;42463;52.214;21.238;2022-11-11T10:32:08;101594.37;;;12.01;72.31
56582;BME280;42463;52.214;21.238;2022-11-11T10:34:54;101597.66;;;12.01;72.25
56582;BME280;42463;52.214;21.238;2022-11-11T10:37:42;101596.95;;;12.06;72.25
56582;BME280;42463;52.214;21.238;2022-11-11T10:40:32;101604.04;;;12.13;72.18
56582;BME280;42463;52.214;21.238;2022-11-11T10:43:23;101604.23;;;12.19;71.92
56582;BME280;42463;52.214;21.238;2022-11-11T10:46:12;101599.69;;;12.23;71.85
56582;BME280;42463;52.214;21.238;2022-11-11T10:49:01;101613.97;;;12.24;71.52
56582;BME280;42463;52.214;21.238;2022-11-11T10:51:51;101599.77;;;12.27;71.67
56582;BME280;42463;52.214;21.238;2022-11-11T10:54:44;101593.81;;;12.30;71.58
56582;BME280;42463;52.214;21.238;2022-11-11T10:57:35;101597.31;;;12.33;71.51
56582;BME280;42463;52.214;21.238;2022-11-11T11:00:24;101595.66;;;12.34;71.15
56582;BME280;42463;52.214;21.238;2022-11-11T11:03:13;101592.30;;;12.40;71.16
56582;BME280;42463;52.214;21.238;2022-11-11T11:06:05;101589.98;;;12.43;70.91
56582;BME280;42463;52.214;21.238;2022-11-11T11:08:52;101578.50;;;12.48;70.75
56582;BME280;42463;52.214;21.238;2022-11-11T11:11:43;101587.81;;;12.53;70.51
56582;BME280;42463;52.214;21.238;2022-11-11T11:14:33;101582.94;;;12.58;70.47
56582;BME280;42463;52.214;21.238;2022-11-11T11:17:23;101576.66;;;12.60;69.97
56582;BME280;42463;52.214;21.238;2022-11-11T11:20:14;101574.79;;;12.61;69.90
56582;BME280;42463;52.214;21.238;2022-11-11T11:23:02;101580.46;;;12.62;69.10
56582;BME280;42463;52.214;21.238;2022-11-11T11:25:52;101573.23;;;12.62;69.55
56582;BME280;42463;52.214;21.238;2022-11-11T11:28:53;101568.11;;;12.65;69.73
56582;BME280;42463;52.214;21.238;2022-11-11T11:31:39;101560.11;;;12.68;69.48
56582;BME280;42463;52.214;21.238;2022-11-11T11:34:45;101554.90;;;12.71;69.58
56582;BME280;42463;52.214;21.238;2022-11-11T11:37:30;101559.08;;;12.76;69.09
56582;BME280;42463;52.214;21.238;2022-11-11T11:40:14;101554.77;;;12.75;68.78
56582;BME280;42463;52.214;21.238;2022-11-11T11:42:58;101554.16;;;12.75;68.61
56582;BME280;42463;52.214;21.238;2022-11-11T11:45:41;101560.11;;;12.72;68.47
56582;BME280;42463;52.214;21.238;2022-11-11T11:48:37;101565.15;;;12.74;68.79
56582;BME280;42463;52.214;21.238;2022-11-11T11:51:31;101562.21;;;12.72;67.99
56582;BME280;42463;52.214;21.238;2022-11-11T11:54:37;101562.84;;;12.70;68.11
56582;BME280;42463;52.214;21.238;2022-11-11T11:57:38;101554.63;;;12.68;67.74
56582;BME280;42463;52.214;21.238;2022-11-11T12:00:27;101552.40;;;12.69;68.35
56582;BME280;42463;52.214;21.238;2022-11-11T12:03:40;101557.20;;;12.69;68.00
56582;BME280;42463;52.214;21.238;2022-11-11T12:06:40;101558.31;;;12.70;68.03
56582;BME280;42463;52.214;21.238;2022-11-11T12:09:38;101550.16;;;12.71;67.81
56582;BME280;42463;52.214;21.238;2022-11-11T12:12:34;101547.89;;;12.72;67.77
56582;BME280;42463;52.214;21.238;2022-11-11T12:15:32;101544.00;;;12.76;67.70
56582;BME280;42463;52.214;21.238;2022-11-11T12:18:34;101541.61;;;12.79;67.84
56582;BME280;42463;52.214;21.238;2022-11-11T12:21:27;101542.73;;;12.81;67.48
56582;BME280;42463;52.214;21.238;2022-11-11T12:27:59;101550.52;;;12.83;67.48
56582;BME280;42463;52.214;21.238;2022-11-11T12:35:18;101548.41;;;12.81;67.78
56582;BME280;42463;52.214;21.238;2022-11-11T12:38:37;101560.19;;;12.85;68.20
56582;BME280;42463;52.214;21.238;2022-11-11T12:41:42;101560.78;;;12.85;68.00
56582;BME280;42463;52.214;21.238;2022-11-11T12:48:37;101565.92;;;12.91;67.68
56582;BME280;42463;52.214;21.238;2022-11-11T12:51:36;101562.91;;;12.93;67.47
56582;BME280;42463;52.214;21.238;2022-11-11T12:54:41;101562.74;;;12.93;68.01
56582;BME280;42463;52.214;21.238;2022-11-11T12:57:37;101570.85;;;12.92;67.75
56582;BME280;42463;52.214;21.238;2022-11-11T13:00:27;101568.27;;;12.88;67.58
56582;BME280;42463;52.214;21.238;2022-11-11T13:03:25;101562.27;;;12.88;67.63
56582;BME280;42463;52.214;21.238;2022-11-11T13:06:24;101559.80;;;12.84;67.54
56582;BME280;42463;52.214;21.238;2022-11-11T13:09:32;101558.80;;;12.83;67.63
56582;BME280;42463;52.214;21.238;2022-11-11T13:12:26;101551.54;;;12.82;67.69
56582;BME280;42463;52.214;21.238;2022-11-11T13:15:17;101548.66;;;12.80;67.72
56582;BME280;42463;52.214;21.238;2022-11-11T13:18:11;101540.56;;;12.76;66.93
56582;BME280;42463;52.214;21.238;2022-11-11T13:20:59;101543.36;;;12.68;66.62
56582;BME280;42463;52.214;21.238;2022-11-11T13:23:45;101541.63;;;12.67;67.33
56582;BME280;42463;52.214;21.238;2022-11-11T13:26:33;101539.29;;;12.64;67.32
56582;BME280;42463;52.214;21.238;2022-11-11T13:29:38;101535.34;;;12.67;67.33
56582;BME280;42463;52.214;21.238;2022-11-11T13:32:28;101536.23;;;12.69;67.31
56582;BME280;42463;52.214;21.238;2022-11-11T13:35:23;101536.77;;;12.69;67.06
56582;BME280;42463;52.214;21.238;2022-11-11T13:38:21;101527.71;;;12.65;66.66
56582;BME280;42463;52.214;21.238;2022-11-11T13:41:07;101530.32;;;12.65;67.12
56582;BME280;42463;52.214;21.238;2022-11-11T13:43:54;101531.63;;;12.67;67.00
56582;BME280;42463;52.214;21.238;2022-11-11T13:46:40;101532.84;;;12.68;66.83
56582;BME280;42463;52.214;21.238;2022-11-11T13:49:27;101522.77;;;12.66;66.23
56582;BME280;42463;52.214;21.238;2022-11-11T13:52:22;101528.93;;;12.61;66.17
56582;BME280;42463;52.214;21.238;2022-11-11T13:55:19;101532.84;;;12.63;67.28
56582;BME280;42463;52.214;21.238;2022-11-11T13:58:06;101527.19;;;12.64;66.69
56582;BME280;42463;52.214;21.238;2022-11-11T14:01:03;101527.20;;;12.62;66.47
56582;BME280;42463;52.214;21.238;2022-11-11T14:04:02;101531.77;;;12.56;66.44
56582;BME280;42463;52.214;21.238;2022-11-11T14:06:55;101529.92;;;12.54;66.56
56582;BME280;42463;52.214;21.238;2022-11-11T14:09:59;101530.92;;;12.52;66.59
56582;BME280;42463;52.214;21.238;2022-11-11T14:12:45;101540.39;;;12.49;66.56
56582;BME280;42463;52.214;21.238;2022-11-11T14:15:36;101539.20;;;12.46;66.23
56582;BME280;42463;52.214;21.238;2022-11-11T14:18:36;101537.60;;;12.42;66.48
56582;BME280;42463;52.214;21.238;2022-11-11T14:21:48;101542.27;;;12.39;66.45
56582;BME280;42463;52.214;21.238;2022-11-11T14:24:36;101547.90;;;12.38;66.61
56582;BME280;42463;52.214;21.238;2022-11-11T14:27:26;101541.21;;;12.38;66.78
56582;BME280;42463;52.214;21.238;2022-11-11T14:30:31;101537.89;;;12.41;67.15
56582;BME280;42463;52.214;21.238;2022-11-11T14:33:25;101544.48;;;12.46;66.72
56582;BME280;42463;52.214;21.238;2022-11-11T14:36:20;101547.13;;;12.47;66.58
56582;BME280;42463;52.214;21.238;2022-11-11T14:39:14;101549.86;;;12.51;66.60
56582;BME280;42463;52.214;21.238;2022-11-11T14:42:00;101557.16;;;12.55;66.64
56582;BME280;42463;52.214;21.238;2022-11-11T14:44:43;101552.10;;;12.54;66.24
56582;BME280;42463;52.214;21.238;2022-11-11T14:47:33;101555.57;;;12.47;66.02
56582;BME280;42463;52.214;21.238;2022-11-11T14:50:43;101563.89;;;12.47;66.37
56582;BME280;42463;52.214;21.238;2022-11-11T14:53:34;101555.25;;;12.43;66.36
56582;BME280;42463;52.214;21.238;2022-11-11T14:56:19;101560.29;;;12.41;66.33